Time;durP1;ratioP1;P1;durP2;ratioP2;P2;SDS_P1;SDS_P2;PMS_P1;PMS_P2;Temp;Humidity;BMP_temperature;BMP_pressure;BME280_temperature;BME280_humidity;BME280_pressure;Samples;Min_cycle;Max_cycle;Signal;HPM_P1;HPM_P2
2024/02/20 00:00:41;;;;;;;7.20;4.50;;;;;;;5.87;95.57;100254.50;130902;1256;108126;-79
2024/02/20 00:04:09;;;;;;;5.60;4.50;;;;;;;5.90;95.38;100255.15;130941;1256;109993;-79
2024/02/20 00:07:16;;;;;;;5.80;5.00;;;;;;;5.93;95.19;100256.38;130940;1253;107455;-79
2024/02/20 00:10:21;;;;;;;5.80;4.30;;;;;;;5.94;95.16;100257.67;130893;1256;108718;-78
2024/02/20 00:13:27;;;;;;;5.80;3.90;;;;;;;5.92;95.34;100263.51;130890;1256;107623;-82
2024/02/20 00:16:33;;;;;;;5.80;3.90;;;;;;;5.94;95.33;100261.20;130887;1256;106274;-80
2024/02/20 00:19:38;;;;;;;6.90;4.20;;;;;;;5.98;95.46;100262.33;130971;1256;106434;-81
2024/02/20 00:22:44;;;;;;;6.00;4.50;;;;;;;6.02;95.32;100261.63;130849;1256;106508;-78
2024/02/20 00:25:50;;;;;;;5.20;4.30;;;;;;;6.05;95.41;100259.11;130832;1253;108815;-81
2024/02/20 00:28:55;;;;;;;8.30;5.30;;;;;;;6.06;95.14;100264.17;130892;1256;108733;-79
2024/02/20 00:32:01;;;;;;;6.80;5.00;;;;;;;6.07;95.17;100266.90;130818;1256;108392;-78
2024/02/20 00:35:09;;;;;;;6.50;4.20;;;;;;;6.06;95.18;100267.52;130845;1253;108617;-79
2024/02/20 00:38:14;;;;;;;5.80;4.20;;;;;;;6.05;95.33;100268.12;130804;1256;107781;-78
2024/02/20 00:41:20;;;;;;;5.40;4.30;;;;;;;6.04;94.90;100267.48;130931;1256;108704;-79
2024/02/20 00:44:26;;;;;;;5.70;4.40;;;;;;;6.04;95.13;100267.50;130874;1256;108142;-78
2024/02/20 00:47:31;;;;;;;5.40;4.70;;;;;;;6.04;95.36;100265.75;130883;1256;108292;-79
2024/02/20 00:50:37;;;;;;;4.90;3.80;;;;;;;6.06;95.06;100264.33;130892;1256;108700;-79
2024/02/20 00:53:42;;;;;;;5.30;3.90;;;;;;;6.04;94.96;100265.87;130864;1256;106889;-79
2024/02/20 00:56:48;;;;;;;5.20;4.00;;;;;;;6.05;95.24;100262.48;130907;1256;107479;-82
2024/02/20 00:59:53;;;;;;;6.40;4.40;;;;;;;6.06;95.17;100260.56;130914;1253;106448;-81
2024/02/20 01:02:59;;;;;;;5.40;4.30;;;;;;;6.09;94.99;100258.75;130981;1254;107645;-79
2024/02/20 01:06:06;;;;;;;6.20;4.70;;;;;;;6.11;95.04;100263.03;130914;1256;107758;-79
2024/02/20 01:09:13;;;;;;;7.30;4.70;;;;;;;6.12;95.09;100257.82;130842;1256;108754;-80
2024/02/20 01:12:19;;;;;;;5.20;4.00;;;;;;;6.15;94.84;100246.52;130970;1267;107107;-79
2024/02/20 01:15:24;;;;;;;5.70;4.00;;;;;;;6.18;94.92;100245.17;130907;1256;106862;-78
2024/02/20 01:18:30;;;;;;;6.20;4.80;;;;;;;6.21;95.02;100241.36;130960;1256;108719;-78
2024/02/20 01:21:36;;;;;;;5.20;4.20;;;;;;;6.22;94.80;100244.10;130948;1256;106199;-79
2024/02/20 01:24:41;;;;;;;5.30;4.10;;;;;;;6.23;94.75;100240.20;130880;1266;106605;-82
2024/02/20 01:27:47;;;;;;;5.20;3.90;;;;;;;6.20;94.45;100239.11;130697;1256;256715;-79
2024/02/20 01:30:52;;;;;;;4.60;3.50;;;;;;;6.19;94.53;100235.92;130935;1253;107798;-80
2024/02/20 01:33:58;;;;;;;5.50;3.60;;;;;;;6.19;94.50;100243.45;130971;1256;107196;-80
2024/02/20 01:37:05;;;;;;;5.10;3.50;;;;;;;6.23;94.46;100242.60;130934;1256;106574;-80
2024/02/20 01:40:12;;;;;;;6.50;4.00;;;;;;;6.26;94.43;100237.75;130910;1256;107497;-79
2024/02/20 01:43:18;;;;;;;5.30;3.90;;;;;;;6.30;94.05;100235.16;130900;1256;106609;-79
2024/02/20 01:46:24;;;;;;;5.90;4.00;;;;;;;6.30;94.25;100235.66;130896;1256;107244;-79
2024/02/20 01:49:30;;;;;;;4.50;3.30;;;;;;;6.28;94.05;100233.89;130970;1253;106346;-80
2024/02/20 01:52:36;;;;;;;6.30;3.80;;;;;;;6.27;94.24;100235.23;130884;1257;107703;-79
2024/02/20 01:55:42;;;;;;;6.90;3.90;;;;;;;6.27;94.31;100234.48;130939;1258;107689;-79
2024/02/20 01:58:48;;;;;;;5.80;3.60;;;;;;;6.30;94.43;100232.69;130895;1256;107705;-81
2024/02/20 02:01:54;;;;;;;6.70;3.90;;;;;;;6.31;94.19;100236.53;130939;1256;107985;-79
2024/02/20 02:04:59;;;;;;;5.90;4.00;;;;;;;6.28;94.35;100235.89;130995;1254;108785;-79
2024/02/20 02:08:09;;;;;;;5.10;3.70;;;;;;;6.23;94.25;100224.95;130891;1256;107689;-79
2024/02/20 02:11:14;;;;;;;4.30;3.20;;;;;;;6.29;94.46;100223.79;130880;1256;107758;-79
2024/02/20 02:14:20;;;;;;;4.10;3.30;;;;;;;6.32;94.35;100225.19;130929;1266;107061;-80
2024/02/20 02:17:25;;;;;;;5.00;3.90;;;;;;;6.29;94.27;100222.70;130833;1257;108768;-79
2024/02/20 02:20:31;;;;;;;6.40;4.10;;;;;;;6.30;94.43;100222.42;131028;1256;108559;-78
2024/02/20 02:23:37;;;;;;;5.30;3.50;;;;;;;6.35;94.46;100220.33;130899;1261;107593;-78
2024/02/20 02:26:42;;;;;;;5.50;3.90;;;;;;;6.34;94.62;100216.98;130867;1253;108760;-82
2024/02/20 02:29:48;;;;;;;5.20;3.30;;;;;;;6.35;94.54;100212.89;130863;1263;106832;-79
2024/02/20 02:32:55;;;;;;;4.70;3.90;;;;;;;6.39;94.86;100212.54;130942;1253;107444;-79
2024/02/20 02:36:01;;;;;;;4.50;4.00;;;;;;;6.44;94.78;100212.63;130894;1256;107718;-80
2024/02/20 02:39:07;;;;;;;6.10;4.40;;;;;;;6.47;94.83;100216.95;130909;1253;108698;-80
2024/02/20 02:42:13;;;;;;;6.10;5.10;;;;;;;6.46;94.57;100223.21;130918;1256;108679;-80
2024/02/20 02:45:18;;;;;;;7.50;4.50;;;;;;;6.42;94.79;100225.54;130847;1256;106626;-78
2024/02/20 02:48:24;;;;;;;5.60;4.10;;;;;;;6.37;94.42;100224.20;130960;1256;107691;-79
2024/02/20 02:51:30;;;;;;;7.30;4.80;;;;;;;6.38;94.55;100219.35;130795;1254;106772;-79
2024/02/20 02:54:35;;;;;;;7.50;5.00;;;;;;;6.43;95.19;100222.25;130820;1256;107637;-79
2024/02/20 02:57:41;;;;;;;7.30;5.20;;;;;;;6.46;94.81;100221.27;130780;1256;106666;-79
2024/02/20 03:00:46;;;;;;;7.20;5.30;;;;;;;6.51;94.63;100223.06;130896;1267;107609;-78
2024/02/20 03:03:52;;;;;;;5.70;4.30;;;;;;;6.51;94.67;100222.30;130945;1256;107726;-79
2024/02/20 03:06:58;;;;;;;5.90;4.40;;;;;;;6.48;94.94;100221.65;130745;1256;106612;-79
2024/02/20 03:10:04;;;;;;;6.80;4.80;;;;;;;6.49;94.70;100225.15;130930;1256;108732;-79
2024/02/20 03:13:09;;;;;;;7.60;4.70;;;;;;;6.49;94.86;100225.64;130943;1267;108662;-79
2024/02/20 03:16:15;;;;;;;6.90;4.60;;;;;;;6.54;94.51;100227.91;130903;1256;107058;-79
2024/02/20 03:19:21;;;;;;;6.00;4.80;;;;;;;6.58;94.75;100233.38;130961;1256;107647;-79
2024/02/20 03:22:27;;;;;;;5.80;4.30;;;;;;;6.54;94.38;100232.15;130900;1256;106770;-78
2024/02/20 03:25:33;;;;;;;6.10;3.90;;;;;;;6.53;94.68;100229.39;130899;1254;107162;-79
2024/02/20 03:28:38;;;;;;;5.30;3.90;;;;;;;6.55;94.30;100228.72;130893;1254;109485;-79
2024/02/20 03:31:44;;;;;;;12.30;6.10;;;;;;;6.56;94.44;100232.89;130982;1256;107877;-80
2024/02/20 03:34:50;;;;;;;73.50;35.60;;;;;;;6.52;94.22;100232.00;130920;1267;107436;-80
2024/02/20 03:37:55;;;;;;;99.40;37.80;;;;;;;6.51;94.41;100231.88;130941;1257;107428;-80
2024/02/20 03:41:01;;;;;;;159.20;48.00;;;;;;;6.53;94.14;100231.54;131200;1256;106987;-79
2024/02/20 03:44:06;;;;;;;38.90;19.30;;;;;;;6.52;94.31;100231.23;130929;1256;108708;-79
2024/02/20 03:47:12;;;;;;;89.50;41.30;;;;;;;6.52;93.98;100235.48;130888;1266;106341;-79
2024/02/20 03:50:18;;;;;;;89.30;46.80;;;;;;;6.54;94.15;100234.63;131017;1257;108691;-79
2024/02/20 03:53:24;;;;;;;60.00;29.70;;;;;;;6.56;94.03;100231.24;131982;1253;107260;-80
2024/02/20 03:56:29;;;;;;;85.70;46.60;;;;;;;6.55;93.91;100231.02;131646;1253;108614;-82
2024/02/20 03:59:35;;;;;;;38.90;19.20;;;;;;;6.54;93.96;100232.86;131200;1266;106367;-79
2024/02/20 04:02:42;;;;;;;26.90;14.20;;;;;;;6.49;94.17;100235.38;131347;1257;108761;-80
2024/02/20 04:05:48;;;;;;;359.50;139.20;;;;;;;6.44;94.03;100232.82;131161;1256;106577;-80
2024/02/20 04:08:53;;;;;;;44.50;20.90;;;;;;;6.43;93.92;100229.20;130939;1258;106821;-80
2024/02/20 04:11:59;;;;;;;90.90;41.60;;;;;;;6.44;93.91;100234.02;130866;1267;106543;-81
2024/02/20 04:15:07;;;;;;;253.50;111.00;;;;;;;6.46;94.27;100235.13;130852;1254;108308;-79
2024/02/20 04:18:13;;;;;;;302.40;130.40;;;;;;;6.45;94.11;100235.52;130843;1266;107278;-79
2024/02/20 04:21:18;;;;;;;426.70;227.90;;;;;;;6.44;93.65;100240.59;130911;1255;108747;-79
2024/02/20 04:24:24;;;;;;;318.80;152.40;;;;;;;6.41;93.77;100242.73;130830;1266;107563;-80
2024/02/20 04:27:29;;;;;;;137.40;64.20;;;;;;;6.39;94.01;100246.96;130875;1257;108719;-79
2024/02/20 04:30:39;;;;;;;250.60;111.40;;;;;;;6.40;94.17;100248.86;130871;1256;107725;-80
2024/02/20 04:33:44;;;;;;;92.90;44.90;;;;;;;6.44;93.77;100251.05;130983;1257;106333;-80
2024/02/20 04:36:50;;;;;;;105.20;55.30;;;;;;;6.47;93.97;100251.45;130872;1256;107606;-80
2024/02/20 04:39:56;;;;;;;264.80;128.50;;;;;;;6.49;93.96;100256.20;130907;1262;107315;-81
2024/02/20 04:43:01;;;;;;;352.20;192.90;;;;;;;6.51;94.04;100255.03;130910;1256;107884;-81
2024/02/20 04:46:07;;;;;;;290.30;127.20;;;;;;;6.48;93.74;100254.70;130900;1256;106855;-79
2024/02/20 04:49:13;;;;;;;223.90;95.40;;;;;;;6.48;93.67;100256.12;130955;1266;108419;-80
2024/02/20 04:52:19;;;;;;;201.10;84.00;;;;;;;6.50;93.89;100257.44;130929;1266;108725;-79
2024/02/20 04:55:26;;;;;;;86.90;37.20;;;;;;;6.52;93.83;100254.92;130910;1254;108722;-80
2024/02/20 04:58:33;;;;;;;276.00;124.20;;;;;;;6.55;93.37;100255.91;130898;1257;107910;-81
2024/02/20 05:01:38;;;;;;;119.50;52.80;;;;;;;6.58;93.48;100257.30;130906;1264;107083;-80
2024/02/20 05:04:44;;;;;;;139.70;78.10;;;;;;;6.60;93.48;100260.66;130982;1254;108583;-81
2024/02/20 05:07:50;;;;;;;101.30;58.10;;;;;;;6.58;93.25;100256.93;130974;1261;107656;-81
2024/02/20 05:10:55;;;;;;;12.30;7.70;;;;;;;6.57;93.52;100262.98;130864;1256;106491;-80
2024/02/20 05:14:01;;;;;;;33.30;24.80;;;;;;;6.56;93.38;100263.74;130914;1264;106713;-81
2024/02/20 05:17:07;;;;;;;18.90;13.70;;;;;;;6.60;93.36;100268.73;130942;1258;109036;-83
2024/02/20 05:20:13;;;;;;;26.40;19.80;;;;;;;6.65;93.20;100266.88;131008;1264;107830;-79
2024/02/20 05:23:19;;;;;;;15.50;12.30;;;;;;;6.68;93.45;100270.73;131007;1266;108143;-79
2024/02/20 05:26:24;;;;;;;55.60;33.40;;;;;;;6.68;93.15;100269.49;131037;1262;108623;-80
2024/02/20 05:29:30;;;;;;;16.60;10.70;;;;;;;6.68;93.39;100272.15;130900;1260;107582;-79
2024/02/20 05:32:37;;;;;;;115.80;49.00;;;;;;;6.67;93.07;100272.41;130929;1257;107687;-81
2024/02/20 05:35:44;;;;;;;306.80;122.20;;;;;;;6.66;93.33;100271.79;130983;1257;107615;-81
2024/02/20 05:38:50;;;;;;;593.20;292.00;;;;;;;6.67;93.29;100273.79;131104;1255;108703;-81
2024/02/20 05:41:56;;;;;;;464.10;225.20;;;;;;;6.69;93.15;100275.64;130936;1256;107324;-79
2024/02/20 05:45:02;;;;;;;730.60;377.10;;;;;;;6.69;93.01;100276.48;131004;1257;107625;-80
2024/02/20 05:48:12;;;;;;;572.60;263.30;;;;;;;6.70;92.83;100269.87;131015;1264;108487;-79
2024/02/20 05:51:17;;;;;;;578.60;242.00;;;;;;;6.68;93.15;100275.10;131200;1258;108681;-81
2024/02/20 05:54:23;;;;;;;510.20;223.60;;;;;;;6.66;93.04;100275.16;130698;1254;107264;-80
2024/02/20 05:57:29;;;;;;;779.10;396.40;;;;;;;6.66;92.54;100282.54;130710;1254;107364;-80
2024/02/20 06:00:34;;;;;;;400.80;175.40;;;;;;;6.70;92.83;100285.77;130668;1260;106354;-79
2024/02/20 06:03:41;;;;;;;240.40;105.60;;;;;;;6.75;92.89;100289.27;130846;1257;107752;-80
2024/02/20 06:06:46;;;;;;;158.30;79.00;;;;;;;6.75;92.54;100292.30;130979;1258;105486;-78
2024/02/20 06:09:52;;;;;;;92.90;49.80;;;;;;;6.75;92.48;100292.80;130920;1258;107797;-79
2024/02/20 06:12:58;;;;;;;296.20;160.70;;;;;;;6.74;92.39;100294.10;130898;1253;107193;-79
2024/02/20 06:16:04;;;;;;;38.30;22.90;;;;;;;6.74;92.51;100297.65;131009;1266;108060;-80
2024/02/20 06:19:09;;;;;;;31.60;22.50;;;;;;;6.75;92.36;100300.60;131069;1259;107051;-81
2024/02/20 06:22:15;;;;;;;11.20;5.70;;;;;;;6.80;92.39;100305.81;130951;1257;107590;-82
2024/02/20 06:25:20;;;;;;;10.20;5.70;;;;;;;6.82;92.39;100301.45;130901;1267;107648;-81
2024/02/20 06:28:26;;;;;;;9.70;5.90;;;;;;;6.85;92.28;100303.79;131012;1267;108641;-81
2024/02/20 06:31:34;;;;;;;13.80;9.00;;;;;;;6.87;92.02;100310.67;130919;1265;106989;-81
2024/02/20 06:34:41;;;;;;;30.50;15.00;;;;;;;6.87;92.01;100310.86;130991;1254;108762;-80
2024/02/20 06:37:46;;;;;;;9.40;5.40;;;;;;;6.86;92.24;100319.42;130935;1258;106770;-81
2024/02/20 06:40:52;;;;;;;10.70;5.90;;;;;;;6.86;91.96;100321.53;130951;1267;107276;-81
2024/02/20 06:43:58;;;;;;;21.60;16.20;;;;;;;6.88;92.11;100320.15;130901;1252;107084;-81
2024/02/20 06:47:03;;;;;;;63.80;33.80;;;;;;;6.95;91.83;100322.98;130934;1257;108314;-81
2024/02/20 06:50:11;;;;;;;182.40;88.30;;;;;;;7.00;91.78;100323.28;131018;1256;106462;-81
2024/02/20 06:53:17;;;;;;;372.60;163.60;;;;;;;7.06;91.63;100322.58;130904;1257;108605;-80
2024/02/20 06:56:23;;;;;;;454.20;195.60;;;;;;;7.09;91.72;100320.19;130955;1254;107341;-80
2024/02/20 06:59:28;;;;;;;269.20;107.10;;;;;;;7.09;91.22;100321.11;131054;1256;106766;-80
2024/02/20 07:02:34;;;;;;;286.00;105.70;;;;;;;7.06;91.25;100317.24;130981;1256;106330;-80
2024/02/20 07:05:40;;;;;;;463.10;205.20;;;;;;;7.05;91.42;100318.19;130928;1257;106465;-79
2024/02/20 07:08:45;;;;;;;326.80;131.60;;;;;;;7.08;91.26;100318.01;130953;1254;108591;-79
2024/02/20 07:11:51;;;;;;;274.10;114.50;;;;;;;7.16;91.48;100317.89;130735;1257;107919;-80
2024/02/20 07:14:56;;;;;;;134.50;66.90;;;;;;;7.23;91.36;100323.24;131048;1257;107390;-80
2024/02/20 07:18:02;;;;;;;113.70;59.80;;;;;;;7.29;91.41;100322.05;130957;1257;108639;-80
2024/02/20 07:21:08;;;;;;;94.90;48.70;;;;;;;7.30;91.04;100325.33;131045;1252;106573;-81
2024/02/20 07:24:13;;;;;;;116.60;67.10;;;;;;;7.30;90.90;100326.55;131010;1251;108664;-81
2024/02/20 07:27:19;;;;;;;55.50;33.00;;;;;;;7.30;91.12;100329.24;130990;1251;109124;-80
2024/02/20 07:30:30;;;;;;;70.70;33.30;;;;;;;7.33;90.84;100331.29;130975;1257;107377;-81
2024/02/20 07:33:36;;;;;;;30.30;18.10;;;;;;;7.38;90.98;100334.24;130955;1257;106767;-80
2024/02/20 07:36:43;;;;;;;25.20;15.10;;;;;;;7.46;90.91;100338.98;130967;1257;106950;-80
2024/02/20 07:39:48;;;;;;;24.10;15.50;;;;;;;7.54;90.53;100337.34;130962;1255;108689;-82
2024/02/20 07:42:54;;;;;;;10.90;5.60;;;;;;;7.59;90.68;100337.40;131050;1257;107539;-80
2024/02/20 07:46:00;;;;;;;8.40;4.70;;;;;;;7.66;90.64;100341.23;131098;1254;108657;-86
2024/02/20 07:49:06;;;;;;;6.60;3.80;;;;;;;7.70;90.36;100342.48;131154;1254;109628;-83
2024/02/20 07:52:12;;;;;;;7.10;4.70;;;;;;;7.75;90.40;100342.73;131125;1267;107485;-83
2024/02/20 07:55:18;;;;;;;9.30;6.60;;;;;;;7.79;90.16;100344.20;131013;1257;106119;-83
2024/02/20 07:58:24;;;;;;;5.70;2.20;;;;;;;7.84;89.89;100351.14;130956;1257;108357;-84
2024/02/20 08:01:30;;;;;;;4.10;2.70;;;;;;;7.90;90.14;100352.78;131126;1254;106873;-82
2024/02/20 08:04:37;;;;;;;4.40;3.20;;;;;;;7.96;89.79;100348.21;130921;1257;107555;-83
2024/02/20 08:07:43;;;;;;;5.80;4.20;;;;;;;7.96;89.11;100353.67;130809;1257;107491;-83
2024/02/20 08:10:48;;;;;;;3.70;2.40;;;;;;;7.96;89.71;100346.20;130950;1254;107885;-84
2024/02/20 08:13:54;;;;;;;4.40;2.10;;;;;;;7.98;89.52;100349.10;131149;1252;107867;-82
2024/02/20 08:17:00;;;;;;;128.70;66.00;;;;;;;8.01;89.72;100352.15;131142;1251;107621;-81
2024/02/20 08:20:07;;;;;;;44.70;20.70;;;;;;;8.07;89.72;100353.24;131128;1251;107802;-81
2024/02/20 08:23:13;;;;;;;227.20;91.00;;;;;;;8.08;88.74;100346.76;131157;1256;107773;-79
2024/02/20 08:26:19;;;;;;;36.10;14.70;;;;;;;8.02;89.05;100353.67;131095;1267;105725;-81
2024/02/20 08:29:27;;;;;;;72.40;34.60;;;;;;;8.04;88.85;100352.66;131178;1252;108389;-82
2024/02/20 08:32:33;;;;;;;151.60;79.30;;;;;;;8.02;89.29;100351.73;131083;1257;106636;-80
2024/02/20 08:35:43;;;;;;;127.90;57.80;;;;;;;8.11;89.63;100344.24;131024;1257;108737;-80
2024/02/20 08:38:58;;;;;;;142.00;66.50;;;;;;;8.15;89.14;100345.48;131085;1257;106585;-81
2024/02/20 08:42:06;;;;;;;303.40;168.30;;;;;;;8.19;89.57;100346.54;131096;1264;108415;-82
2024/02/20 08:45:13;;;;;;;58.90;32.90;;;;;;;8.34;89.68;100348.45;130862;1251;109008;-83
2024/02/20 08:48:19;;;;;;;22.60;12.80;;;;;;;8.44;88.73;100350.58;131028;1264;106526;-81
2024/02/20 08:51:24;;;;;;;18.50;12.40;;;;;;;8.48;88.25;100359.06;131229;1257;106828;-81
2024/02/20 08:54:30;;;;;;;8.70;6.40;;;;;;;8.45;88.55;100356.83;131092;1258;106550;-82
2024/02/20 08:57:36;;;;;;;6.30;4.80;;;;;;;8.47;88.57;100356.48;131021;1264;108791;-81
2024/02/20 09:00:41;;;;;;;8.70;5.50;;;;;;;8.43;87.59;100360.73;131045;1251;106419;-81
2024/02/20 09:03:47;;;;;;;6.20;4.40;;;;;;;8.32;88.52;100356.06;130943;1256;107778;-81
2024/02/20 09:06:53;;;;;;;6.30;4.70;;;;;;;8.32;88.78;100355.30;131053;1256;108182;-80
2024/02/20 09:09:58;;;;;;;5.60;4.50;;;;;;;8.37;88.81;100354.20;130973;1254;106533;-81
2024/02/20 09:13:05;;;;;;;7.20;5.10;;;;;;;8.48;88.67;100352.48;131033;1256;107428;-80
2024/02/20 09:16:11;;;;;;;6.00;5.30;;;;;;;8.63;89.01;100353.27;131333;1254;107801;-82
2024/02/20 09:19:18;;;;;;;7.10;5.50;;;;;;;8.80;88.14;100351.38;130969;1256;107743;-81
2024/02/20 09:22:24;;;;;;;8.20;5.30;;;;;;;8.89;87.24;100359.08;130996;1258;106768;-81
2024/02/20 09:25:30;;;;;;;7.10;5.40;;;;;;;8.80;86.50;100365.75;131009;1256;106436;-80
2024/02/20 09:28:37;;;;;;;7.00;5.00;;;;;;;8.82;87.25;100363.11;130922;1267;108705;-80
2024/02/20 09:31:42;;;;;;;28.50;16.20;;;;;;;8.96;87.49;100358.99;130902;1254;108597;-80
2024/02/20 09:34:48;;;;;;;250.80;109.30;;;;;;;9.06;86.66;100365.42;131046;1254;107688;-81
2024/02/20 09:37:54;;;;;;;275.90;109.60;;;;;;;9.00;85.44;100362.88;130930;1256;105681;-80
2024/02/20 09:41:00;;;;;;;194.20;71.60;;;;;;;9.07;87.13;100355.89;130937;1256;108519;-81
2024/02/20 09:44:08;;;;;;;403.70;184.20;;;;;;;9.12;85.78;100358.59;130988;1256;108779;-81
2024/02/20 09:47:15;;;;;;;440.80;190.50;;;;;;;9.07;86.23;100365.28;131044;1256;108714;-82
2024/02/20 09:50:21;;;;;;;361.70;153.10;;;;;;;9.11;86.24;100368.00;131161;1256;106293;-82
2024/02/20 09:53:28;;;;;;;266.40;97.70;;;;;;;9.17;86.29;100363.25;130950;1267;107118;-81
2024/02/20 09:56:36;;;;;;;235.10;98.00;;;;;;;9.28;86.37;100363.74;131073;1254;107609;-82
2024/02/20 09:59:42;;;;;;;308.80;134.60;;;;;;;9.40;85.98;100370.17;131079;1257;106783;-80
2024/02/20 10:02:49;;;;;;;67.80;30.00;;;;;;;9.55;85.56;100372.20;130941;1254;108739;-80
2024/02/20 10:05:57;;;;;;;116.10;55.20;;;;;;;9.69;83.82;100368.10;130995;1256;106513;-80
2024/02/20 10:09:03;;;;;;;31.50;15.50;;;;;;;9.69;83.58;100368.55;131098;1257;108612;-82
2024/02/20 10:12:20;;;;;;;58.20;29.70;;;;;;;9.71;83.24;100365.59;130962;1256;108986;-81
2024/02/20 10:15:25;;;;;;;101.50;53.80;;;;;;;9.73;83.24;100365.73;130919;1256;108675;-81
2024/02/20 10:18:31;;;;;;;80.00;44.30;;;;;;;9.64;82.49;100364.96;130808;1257;107871;-82
2024/02/20 10:21:36;;;;;;;110.60;60.90;;;;;;;9.53;84.27;100366.57;131041;1256;107127;-81
2024/02/20 10:24:42;;;;;;;26.30;15.50;;;;;;;9.61;84.24;100366.83;131079;1266;107638;-82
2024/02/20 10:27:48;;;;;;;47.20;28.50;;;;;;;9.63;83.23;100369.67;130990;1257;108349;-82
2024/02/20 10:30:54;;;;;;;62.50;38.80;;;;;;;9.61;82.88;100370.59;131079;1256;108728;-81
2024/02/20 10:34:00;;;;;;;29.00;21.70;;;;;;;9.54;82.55;100369.25;131015;1256;106759;-81
2024/02/20 10:37:09;;;;;;;12.60;9.80;;;;;;;9.48;80.43;100369.64;131160;1251;108596;-82
2024/02/20 10:40:16;;;;;;;9.60;4.90;;;;;;;9.37;81.28;100368.75;130953;1256;108645;-81
2024/02/20 10:43:22;;;;;;;17.10;11.40;;;;;;;9.18;80.73;100371.33;131038;1257;107753;-82
2024/02/20 10:46:28;;;;;;;8.30;5.50;;;;;;;8.95;79.67;100374.91;131099;1256;108735;-82
2024/02/20 10:49:34;;;;;;;5.20;4.10;;;;;;;8.78;81.59;100370.00;131068;1256;107691;-81
2024/02/20 10:52:41;;;;;;;7.40;5.20;;;;;;;8.77;82.77;100371.17;130938;1256;106721;-81
2024/02/20 10:55:52;;;;;;;4.60;3.00;;;;;;;8.86;82.53;100373.34;130997;1257;107645;-81
2024/02/20 10:58:59;;;;;;;11.10;6.80;;;;;;;9.04;82.39;100370.15;131120;1256;107620;-82
2024/02/20 11:02:05;;;;;;;6.50;4.00;;;;;;;9.20;81.76;100364.95;131002;1252;106409;-81
2024/02/20 11:05:13;;;;;;;66.40;46.00;;;;;;;9.28;81.63;100361.24;131022;1257;107777;-81
2024/02/20 11:08:25;;;;;;;10.70;6.00;;;;;;;9.26;81.70;100363.89;130940;1256;107760;-81
2024/02/20 11:11:30;;;;;;;16.70;7.40;;;;;;;9.21;81.95;100362.05;130977;1256;105852;-82
2024/02/20 11:14:36;;;;;;;17.00;6.80;;;;;;;9.24;82.50;100359.46;130985;1256;108595;-82
2024/02/20 11:17:42;;;;;;;12.30;7.40;;;;;;;9.34;81.90;100362.77;130917;1253;109209;-80
2024/02/20 11:20:59;;;;;;;6.40;4.00;;;;;;;9.36;80.74;100365.26;131055;1251;109007;-81
2024/02/20 11:24:16;;;;;;;6.20;3.80;;;;;;;9.31;80.65;100361.10;131136;1256;107392;-82
2024/02/20 11:27:28;;;;;;;9.20;3.90;;;;;;;9.28;81.13;100358.20;131041;1256;107934;-81
2024/02/20 11:30:34;;;;;;;5.80;3.20;;;;;;;9.25;80.12;100359.22;131098;1251;108677;-82
2024/02/20 11:33:40;;;;;;;12.10;5.30;;;;;;;9.19;81.36;100353.39;130994;1254;107928;-81
2024/02/20 11:36:46;;;;;;;4.80;3.00;;;;;;;9.20;81.38;100355.57;131177;1251;107652;-82
2024/02/20 11:39:53;;;;;;;11.70;6.30;;;;;;;9.09;80.87;100354.83;131092;1254;106460;-82
2024/02/20 11:43:01;;;;;;;9.50;5.70;;;;;;;8.99;81.06;100351.83;130996;1256;107344;-81
2024/02/20 11:46:06;;;;;;;16.70;8.50;;;;;;;8.82;80.57;100354.27;131014;1253;106494;-82
2024/02/20 11:49:22;;;;;;;259.30;103.70;;;;;;;8.71;81.60;100352.23;130975;1257;107705;-80
2024/02/20 11:52:27;;;;;;;24.10;11.40;;;;;;;8.71;81.96;100352.40;131085;1256;108445;-82
2024/02/20 11:55:34;;;;;;;253.20;87.60;;;;;;;8.63;82.42;100348.52;130992;1257;107954;-80
2024/02/20 11:58:39;;;;;;;338.30;133.10;;;;;;;8.63;82.69;100342.77;130980;1256;106184;-80
2024/02/20 12:01:45;;;;;;;437.50;172.30;;;;;;;8.72;82.92;100342.58;130969;1251;109316;-80
2024/02/20 12:05:02;;;;;;;447.10;186.40;;;;;;;8.77;82.78;100341.00;131018;1254;106810;-81
2024/02/20 12:08:16;;;;;;;889.50;425.00;;;;;;;8.79;82.94;100335.52;130965;1254;106378;-82
2024/02/20 12:11:23;;;;;;;547.60;219.70;;;;;;;8.82;82.68;100332.06;131025;1257;107568;-80
2024/02/20 12:14:29;;;;;;;331.70;111.70;;;;;;;8.82;82.69;100331.70;130956;1256;108621;-82
2024/02/20 12:17:42;;;;;;;840.20;370.80;;;;;;;8.84;83.03;100336.85;130970;1254;107556;-82
2024/02/20 12:20:47;;;;;;;569.80;211.90;;;;;;;8.85;83.40;100335.49;130991;1256;107421;-81
2024/02/20 12:23:57;;;;;;;292.00;94.90;;;;;;;8.85;83.54;100334.23;130914;1256;108631;-81
2024/02/20 12:27:03;;;;;;;64.90;25.40;;;;;;;8.85;83.92;100330.88;131038;1253;106436;-81
2024/02/20 12:30:09;;;;;;;286.90;110.80;;;;;;;8.78;84.45;100330.42;131015;1256;107118;-81
2024/02/20 12:33:15;;;;;;;111.40;38.00;;;;;;;8.76;84.79;100331.38;130911;1257;106864;-81
2024/02/20 12:36:23;;;;;;;321.90;114.50;;;;;;;8.77;85.38;100331.10;131004;1256;106451;-80
2024/02/20 12:39:29;;;;;;;330.10;117.10;;;;;;;8.73;85.79;100331.27;130988;1256;108113;-81
2024/02/20 12:42:35;;;;;;;188.90;64.20;;;;;;;8.64;85.73;100336.46;130932;1253;106841;-82
2024/02/20 12:45:42;;;;;;;110.50;43.80;;;;;;;8.62;86.00;100336.33;130957;1253;107176;-82
2024/02/20 12:48:53;;;;;;;68.00;32.50;;;;;;;8.67;86.39;100336.59;131026;1252;106517;-80
2024/02/20 12:52:00;;;;;;;78.90;40.10;;;;;;;8.70;86.70;100338.54;131056;1256;107597;-81
2024/02/20 12:55:07;;;;;;;19.70;11.30;;;;;;;8.63;87.32;100341.06;131028;1256;107814;-82
2024/02/20 12:58:13;;;;;;;24.60;16.80;;;;;;;8.55;87.72;100343.40;131027;1253;107518;-80
2024/02/20 13:01:19;;;;;;;9.50;6.00;;;;;;;8.41;88.73;100343.34;131089;1252;107694;-81
2024/02/20 13:04:24;;;;;;;8.30;5.90;;;;;;;8.17;90.60;100343.70;130806;1257;108707;-82
2024/02/20 13:07:30;;;;;;;9.60;6.70;;;;;;;8.03;90.15;100339.20;130717;1256;108595;-82
2024/02/20 13:10:36;;;;;;;9.20;6.60;;;;;;;7.97;91.18;100343.66;130647;1257;107473;-81
2024/02/20 13:13:41;;;;;;;12.00;7.90;;;;;;;7.87;91.23;100339.77;130684;1257;106196;-82
2024/02/20 13:16:48;;;;;;;10.60;6.50;;;;;;;7.75;92.28;100344.33;130681;1257;107620;-82
2024/02/20 13:19:54;;;;;;;9.20;6.10;;;;;;;7.61;93.01;100343.58;130725;1266;107694;-82
2024/02/20 13:23:00;;;;;;;7.40;4.90;;;;;;;7.56;92.52;100339.11;130671;1253;107491;-81
2024/02/20 13:26:07;;;;;;;7.00;3.80;;;;;;;7.59;91.63;100341.79;130656;1253;107747;-80
2024/02/20 13:29:12;;;;;;;6.20;4.60;;;;;;;7.64;92.27;100350.25;130686;1259;254584;-81
2024/02/20 13:32:18;;;;;;;7.40;5.50;;;;;;;7.58;93.42;100356.83;130743;1254;108687;-81
2024/02/20 13:35:24;;;;;;;7.90;4.80;;;;;;;7.51;92.91;100351.00;130752;1258;107617;-80
2024/02/20 13:38:30;;;;;;;5.70;4.40;;;;;;;7.45;93.17;100355.06;130806;1253;108943;-81
2024/02/20 13:41:36;;;;;;;5.40;4.10;;;;;;;7.37;93.44;100365.84;130696;1253;107541;-80
2024/02/20 13:44:41;;;;;;;7.70;5.80;;;;;;;7.31;93.86;100364.70;130662;1253;106522;-81
2024/02/20 13:47:47;;;;;;;11.00;7.80;;;;;;;7.31;93.67;100370.54;130729;1258;108500;-80
2024/02/20 13:50:53;;;;;;;4.30;3.30;;;;;;;7.24;93.63;100363.20;130710;1257;107709;-82
2024/02/20 13:53:59;;;;;;;5.30;2.90;;;;;;;7.25;93.46;100362.70;130722;1254;106676;-80
2024/02/20 13:57:04;;;;;;;17.30;12.60;;;;;;;7.28;92.58;100368.86;130699;1256;107586;-79
2024/02/20 14:00:13;;;;;;;7.40;5.60;;;;;;;7.30;93.14;100370.28;130897;1252;106538;-83